Aviation Digital Data Service (ADDS)

Output produced by METARs form (1421 UTC 20 October 2021)
found at http://www.aviationweather.gov/metar/data/
 
Forecast for: LROP (BUCHAREST/OTOPEN, RO)
Text: TAF LROP 201100Z 2012/2112 25008KT CAVOK
Forecast period: 1200 to 2300 UTC 20 October 2021
Forecast type: FROM: standard forecast or significant change
Winds: from the WSW (250 degrees) at 9 MPH (8 knots; 4.1 m/s)
Visibility: 6 or more miles (10+ km)
Ceiling: unknown
Clouds: missing
Weather: NSW  (no significant weather)
Text: BECMG 2023/2101 3000 BR
Forecast period: 2300 UTC 20 October 2021 to 0400 UTC 21 October 2021
Forecast type: BECOMING: Conditions expected to become as follows by 0100 UTC 21 October 2021
Winds: from the WSW (250 degrees) at 9 MPH (8 knots; 4.1 m/s)
Visibility: 1.86 miles (2.99 km)
Ceiling: unknown
Clouds: missing
Weather: BR  (mist)
Text: PROB30
Forecast period: 0100 to 0400 UTC 21 October 2021
Forecast type: TEMPORARY: The following changes expected for less than half the time period
Visibility: 0.93 miles (1.50 km)
Ceiling: unknown
Clouds: missing
Weather: BR  (mist)
Text: TEMPO 2101/2104 1500 BR
Forecast period: 0400 to 1200 UTC 21 October 2021
Forecast type: BECOMING: Conditions expected to become as follows by 0600 UTC 21 October 2021
Winds: from the WSW (250 degrees) at 9 MPH (8 knots; 4.1 m/s)
Visibility: 6 or more miles (10+ km)
Ceiling: unknown
Clouds: missing
Weather: NSW  (no significant weather)